sensor_id;sensor_type;location;lat;lon;timestamp;P1;durP1;ratioP1;P2;durP2;ratioP2
71856;SDS011;59712;46.980;28.882;2022-07-29T00:00:13;6.82;;;4.38;;
71856;SDS011;59712;46.980;28.882;2022-07-29T00:03:02;8.73;;;4.38;;
71856;SDS011;59712;46.980;28.882;2022-07-29T00:05:29;6.25;;;4.30;;
71856;SDS011;59712;46.980;28.882;2022-07-29T00:07:56;4.32;;;3.17;;
71856;SDS011;59712;46.980;28.882;2022-07-29T00:10:23;9.63;;;3.97;;
71856;SDS011;59712;46.980;28.882;2022-07-29T00:12:50;6.25;;;4.20;;
71856;SDS011;59712;46.980;28.882;2022-07-29T00:15:17;6.53;;;3.65;;
71856;SDS011;59712;46.980;28.882;2022-07-29T00:17:44;6.22;;;3.92;;
71856;SDS011;59712;46.980;28.882;2022-07-29T00:20:12;5.50;;;3.85;;
71856;SDS011;59712;46.980;28.882;2022-07-29T00:22:39;4.30;;;3.40;;
71856;SDS011;59712;46.980;28.882;2022-07-29T00:25:07;4.15;;;3.60;;
71856;SDS011;59712;46.980;28.882;2022-07-29T00:30:03;6.00;;;4.10;;
71856;SDS011;59712;46.980;28.882;2022-07-29T00:34:59;5.40;;;3.95;;
71856;SDS011;59712;46.980;28.882;2022-07-29T00:37:45;9.40;;;3.60;;
71856;SDS011;59712;46.980;28.882;2022-07-29T00:40:13;6.43;;;3.65;;
71856;SDS011;59712;46.980;28.882;2022-07-29T00:42:44;5.28;;;3.55;;
71856;SDS011;59712;46.980;28.882;2022-07-29T00:45:15;4.95;;;3.42;;
71856;SDS011;59712;46.980;28.882;2022-07-29T00:47:43;4.85;;;3.58;;
71856;SDS011;59712;46.980;28.882;2022-07-29T00:50:11;4.10;;;3.38;;
71856;SDS011;59712;46.980;28.882;2022-07-29T00:52:42;4.30;;;3.40;;
71856;SDS011;59712;46.980;28.882;2022-07-29T00:55:29;7.90;;;3.50;;
71856;SDS011;59712;46.980;28.882;2022-07-29T00:57:57;5.55;;;3.83;;
71856;SDS011;59712;46.980;28.882;2022-07-29T01:00:26;5.10;;;3.55;;
71856;SDS011;59712;46.980;28.882;2022-07-29T01:02:54;6.50;;;3.75;;
71856;SDS011;59712;46.980;28.882;2022-07-29T01:05:25;7.25;;;3.70;;
71856;SDS011;59712;46.980;28.882;2022-07-29T01:08:15;9.20;;;3.60;;
71856;SDS011;59712;46.980;28.882;2022-07-29T01:10:43;6.35;;;3.00;;
71856;SDS011;59712;46.980;28.882;2022-07-29T01:15:43;3.58;;;3.03;;
71856;SDS011;59712;46.980;28.882;2022-07-29T01:18:34;4.55;;;3.40;;
71856;SDS011;59712;46.980;28.882;2022-07-29T01:29:12;5.65;;;3.42;;
71856;SDS011;59712;46.980;28.882;2022-07-29T01:34:30;6.80;;;4.05;;
71856;SDS011;59712;46.980;28.882;2022-07-29T01:37:15;5.28;;;3.47;;
71856;SDS011;59712;46.980;28.882;2022-07-29T01:39:47;5.78;;;3.53;;
71856;SDS011;59712;46.980;28.882;2022-07-29T01:42:23;5.80;;;3.50;;
71856;SDS011;59712;46.980;28.882;2022-07-29T01:45:05;6.70;;;3.53;;
71856;SDS011;59712;46.980;28.882;2022-07-29T01:47:41;3.22;;;2.83;;
71856;SDS011;59712;46.980;28.882;2022-07-29T01:50:14;4.57;;;3.38;;
71856;SDS011;59712;46.980;28.882;2022-07-29T01:52:52;4.60;;;2.97;;
71856;SDS011;59712;46.980;28.882;2022-07-29T01:55:25;3.50;;;2.60;;
71856;SDS011;59712;46.980;28.882;2022-07-29T01:57:56;5.32;;;3.50;;
71856;SDS011;59712;46.980;28.882;2022-07-29T02:00:26;4.25;;;3.60;;
71856;SDS011;59712;46.980;28.882;2022-07-29T02:02:54;6.07;;;3.30;;
71856;SDS011;59712;46.980;28.882;2022-07-29T02:05:22;4.57;;;3.85;;
71856;SDS011;59712;46.980;28.882;2022-07-29T02:07:54;4.75;;;3.78;;
71856;SDS011;59712;46.980;28.882;2022-07-29T02:10:25;5.38;;;3.90;;
71856;SDS011;59712;46.980;28.882;2022-07-29T02:12:57;3.90;;;2.83;;
71856;SDS011;59712;46.980;28.882;2022-07-29T02:15:30;3.88;;;2.80;;
71856;SDS011;59712;46.980;28.882;2022-07-29T02:18:01;4.63;;;3.25;;
71856;SDS011;59712;46.980;28.882;2022-07-29T02:20:32;5.75;;;3.72;;
71856;SDS011;59712;46.980;28.882;2022-07-29T02:23:00;4.97;;;3.47;;
71856;SDS011;59712;46.980;28.882;2022-07-29T02:28:05;6.47;;;3.33;;
71856;SDS011;59712;46.980;28.882;2022-07-29T02:30:33;4.38;;;3.65;;
71856;SDS011;59712;46.980;28.882;2022-07-29T02:33:06;8.55;;;4.72;;
71856;SDS011;59712;46.980;28.882;2022-07-29T02:35:36;6.78;;;3.13;;
71856;SDS011;59712;46.980;28.882;2022-07-29T02:38:06;4.47;;;3.20;;
71856;SDS011;59712;46.980;28.882;2022-07-29T02:40:53;4.30;;;2.80;;
71856;SDS011;59712;46.980;28.882;2022-07-29T02:43:23;4.38;;;2.97;;
71856;SDS011;59712;46.980;28.882;2022-07-29T02:45:52;6.22;;;3.03;;
71856;SDS011;59712;46.980;28.882;2022-07-29T02:48:22;4.68;;;3.00;;
71856;SDS011;59712;46.980;28.882;2022-07-29T02:51:01;4.70;;;3.05;;
71856;SDS011;59712;46.980;28.882;2022-07-29T02:53:34;5.72;;;3.22;;
71856;SDS011;59712;46.980;28.882;2022-07-29T02:56:14;4.38;;;3.38;;
71856;SDS011;59712;46.980;28.882;2022-07-29T02:58:53;5.18;;;2.95;;
71856;SDS011;59712;46.980;28.882;2022-07-29T03:01:24;3.90;;;2.53;;
71856;SDS011;59712;46.980;28.882;2022-07-29T03:03:52;4.75;;;2.90;;
71856;SDS011;59712;46.980;28.882;2022-07-29T03:06:21;7.07;;;2.80;;
71856;SDS011;59712;46.980;28.882;2022-07-29T03:09:05;7.30;;;3.30;;
71856;SDS011;59712;46.980;28.882;2022-07-29T03:11:39;3.83;;;2.88;;
71856;SDS011;59712;46.980;28.882;2022-07-29T03:14:19;4.00;;;2.60;;
71856;SDS011;59712;46.980;28.882;2022-07-29T03:16:47;2.40;;;1.95;;
71856;SDS011;59712;46.980;28.882;2022-07-29T03:19:15;4.20;;;2.30;;
71856;SDS011;59712;46.980;28.882;2022-07-29T03:24:10;7.53;;;2.88;;
71856;SDS011;59712;46.980;28.882;2022-07-29T03:27:01;4.88;;;2.75;;
71856;SDS011;59712;46.980;28.882;2022-07-29T03:29:29;6.07;;;3.10;;
71856;SDS011;59712;46.980;28.882;2022-07-29T03:32:00;4.45;;;2.45;;
71856;SDS011;59712;46.980;28.882;2022-07-29T03:34:33;5.60;;;2.50;;
71856;SDS011;59712;46.980;28.882;2022-07-29T03:37:01;5.38;;;1.73;;
71856;SDS011;59712;46.980;28.882;2022-07-29T03:39:31;2.92;;;2.10;;
71856;SDS011;59712;46.980;28.882;2022-07-29T03:42:01;3.60;;;1.98;;
71856;SDS011;59712;46.980;28.882;2022-07-29T03:44:32;6.00;;;2.53;;
71856;SDS011;59712;46.980;28.882;2022-07-29T03:47:01;4.60;;;1.80;;
71856;SDS011;59712;46.980;28.882;2022-07-29T03:49:32;4.80;;;2.00;;
71856;SDS011;59712;46.980;28.882;2022-07-29T03:52:05;1.98;;;1.65;;
71856;SDS011;59712;46.980;28.882;2022-07-29T03:54:32;3.50;;;2.30;;
71856;SDS011;59712;46.980;28.882;2022-07-29T03:57:01;3.03;;;1.73;;
71856;SDS011;59712;46.980;28.882;2022-07-29T03:59:30;5.35;;;2.42;;
71856;SDS011;59712;46.980;28.882;2022-07-29T04:02:00;6.50;;;2.40;;
71856;SDS011;59712;46.980;28.882;2022-07-29T04:04:31;4.20;;;1.95;;
71856;SDS011;59712;46.980;28.882;2022-07-29T04:07:00;5.10;;;1.60;;
71856;SDS011;59712;46.980;28.882;2022-07-29T04:09:27;4.15;;;2.00;;
71856;SDS011;59712;46.980;28.882;2022-07-29T04:11:55;4.15;;;2.00;;
71856;SDS011;59712;46.980;28.882;2022-07-29T04:14:32;4.32;;;2.03;;
71856;SDS011;59712;46.980;28.882;2022-07-29T04:17:00;3.33;;;1.55;;
71856;SDS011;59712;46.980;28.882;2022-07-29T04:19:29;3.42;;;1.88;;
71856;SDS011;59712;46.980;28.882;2022-07-29T04:21:57;5.35;;;1.90;;
71856;SDS011;59712;46.980;28.882;2022-07-29T04:24:25;5.65;;;1.60;;
71856;SDS011;59712;46.980;28.882;2022-07-29T04:26:53;2.97;;;1.52;;
71856;SDS011;59712;46.980;28.882;2022-07-29T04:29:21;6.47;;;1.73;;
71856;SDS011;59712;46.980;28.882;2022-07-29T04:31:48;4.10;;;1.45;;
71856;SDS011;59712;46.980;28.882;2022-07-29T04:34:15;5.78;;;2.45;;
71856;SDS011;59712;46.980;28.882;2022-07-29T04:36:43;2.92;;;1.90;;
71856;SDS011;59712;46.980;28.882;2022-07-29T04:39:10;4.50;;;1.95;;
71856;SDS011;59712;46.980;28.882;2022-07-29T04:41:38;5.13;;;2.20;;
71856;SDS011;59712;46.980;28.882;2022-07-29T04:44:08;4.40;;;2.00;;
71856;SDS011;59712;46.980;28.882;2022-07-29T04:46:37;6.80;;;2.97;;
71856;SDS011;59712;46.980;28.882;2022-07-29T04:49:08;6.45;;;2.30;;
71856;SDS011;59712;46.980;28.882;2022-07-29T04:51:36;3.60;;;1.77;;
71856;SDS011;59712;46.980;28.882;2022-07-29T04:54:04;5.32;;;2.65;;
71856;SDS011;59712;46.980;28.882;2022-07-29T04:56:32;12.60;;;2.75;;
71856;SDS011;59712;46.980;28.882;2022-07-29T04:59:02;6.90;;;2.65;;
71856;SDS011;59712;46.980;28.882;2022-07-29T05:01:29;8.57;;;3.17;;
71856;SDS011;59712;46.980;28.882;2022-07-29T05:03:56;6.80;;;3.10;;
71856;SDS011;59712;46.980;28.882;2022-07-29T05:06:27;15.50;;;3.78;;
71856;SDS011;59712;46.980;28.882;2022-07-29T05:11:22;5.13;;;2.90;;
71856;SDS011;59712;46.980;28.882;2022-07-29T05:13:56;25.02;;;7.70;;
71856;SDS011;59712;46.980;28.882;2022-07-29T05:16:23;26.77;;;10.10;;
71856;SDS011;59712;46.980;28.882;2022-07-29T05:18:50;18.27;;;5.90;;
71856;SDS011;59712;46.980;28.882;2022-07-29T05:21:21;16.70;;;4.57;;
71856;SDS011;59712;46.980;28.882;2022-07-29T05:23:48;8.45;;;3.33;;
71856;SDS011;59712;46.980;28.882;2022-07-29T05:26:16;8.05;;;3.50;;
71856;SDS011;59712;46.980;28.882;2022-07-29T05:28:43;12.80;;;5.95;;
71856;SDS011;59712;46.980;28.882;2022-07-29T05:31:10;14.98;;;5.72;;
71856;SDS011;59712;46.980;28.882;2022-07-29T05:33:38;7.80;;;3.40;;
71856;SDS011;59712;46.980;28.882;2022-07-29T05:36:05;5.07;;;3.03;;
71856;SDS011;59712;46.980;28.882;2022-07-29T05:38:37;14.18;;;3.60;;
71856;SDS011;59712;46.980;28.882;2022-07-29T05:41:22;10.45;;;3.60;;
71856;SDS011;59712;46.980;28.882;2022-07-29T05:43:49;7.88;;;3.53;;
71856;SDS011;59712;46.980;28.882;2022-07-29T05:46:16;8.90;;;3.80;;
71856;SDS011;59712;46.980;28.882;2022-07-29T05:48:44;8.90;;;3.42;;
71856;SDS011;59712;46.980;28.882;2022-07-29T05:51:11;11.23;;;5.13;;
71856;SDS011;59712;46.980;28.882;2022-07-29T05:53:38;11.60;;;5.63;;
71856;SDS011;59712;46.980;28.882;2022-07-29T05:56:06;9.38;;;4.07;;
71856;SDS011;59712;46.980;28.882;2022-07-29T05:58:34;10.45;;;5.70;;
71856;SDS011;59712;46.980;28.882;2022-07-29T06:01:01;9.60;;;4.47;;
71856;SDS011;59712;46.980;28.882;2022-07-29T06:03:29;15.73;;;5.00;;
71856;SDS011;59712;46.980;28.882;2022-07-29T06:05:59;10.63;;;4.32;;
71856;SDS011;59712;46.980;28.882;2022-07-29T06:08:27;8.52;;;4.25;;
71856;SDS011;59712;46.980;28.882;2022-07-29T06:10:54;6.95;;;4.30;;
71856;SDS011;59712;46.980;28.882;2022-07-29T06:13:21;8.48;;;4.45;;
71856;SDS011;59712;46.980;28.882;2022-07-29T06:15:49;13.75;;;5.85;;
71856;SDS011;59712;46.980;28.882;2022-07-29T06:18:16;9.30;;;5.68;;
71856;SDS011;59712;46.980;28.882;2022-07-29T06:20:44;12.00;;;5.70;;
71856;SDS011;59712;46.980;28.882;2022-07-29T06:23:11;10.88;;;6.63;;
71856;SDS011;59712;46.980;28.882;2022-07-29T06:25:39;12.85;;;6.50;;
71856;SDS011;59712;46.980;28.882;2022-07-29T06:28:08;9.70;;;5.55;;
71856;SDS011;59712;46.980;28.882;2022-07-29T06:30:36;10.52;;;5.43;;
71856;SDS011;59712;46.980;28.882;2022-07-29T06:33:04;6.35;;;4.15;;
71856;SDS011;59712;46.980;28.882;2022-07-29T06:35:35;10.23;;;5.65;;
71856;SDS011;59712;46.980;28.882;2022-07-29T06:38:12;10.73;;;5.82;;
71856;SDS011;59712;46.980;28.882;2022-07-29T06:40:59;14.63;;;6.28;;
71856;SDS011;59712;46.980;28.882;2022-07-29T06:43:40;8.45;;;5.15;;
71856;SDS011;59712;46.980;28.882;2022-07-29T06:46:20;12.35;;;6.68;;
71856;SDS011;59712;46.980;28.882;2022-07-29T06:48:49;13.80;;;7.53;;
71856;SDS011;59712;46.980;28.882;2022-07-29T06:51:18;16.35;;;7.55;;
71856;SDS011;59712;46.980;28.882;2022-07-29T06:53:50;27.67;;;11.82;;
71856;SDS011;59712;46.980;28.882;2022-07-29T06:56:28;25.83;;;13.63;;
71856;SDS011;59712;46.980;28.882;2022-07-29T06:58:56;11.98;;;7.47;;
71856;SDS011;59712;46.980;28.882;2022-07-29T07:01:24;10.73;;;7.22;;
71856;SDS011;59712;46.980;28.882;2022-07-29T07:03:51;13.32;;;7.10;;
71856;SDS011;59712;46.980;28.882;2022-07-29T07:06:18;11.35;;;6.57;;
71856;SDS011;59712;46.980;28.882;2022-07-29T07:08:45;13.13;;;7.78;;
71856;SDS011;59712;46.980;28.882;2022-07-29T07:11:13;12.25;;;7.18;;
71856;SDS011;59712;46.980;28.882;2022-07-29T07:13:40;19.33;;;8.23;;
71856;SDS011;59712;46.980;28.882;2022-07-29T07:16:08;16.67;;;8.60;;
71856;SDS011;59712;46.980;28.882;2022-07-29T07:18:35;16.17;;;7.97;;
71856;SDS011;59712;46.980;28.882;2022-07-29T07:21:08;16.50;;;8.57;;
71856;SDS011;59712;46.980;28.882;2022-07-29T07:23:35;17.08;;;8.25;;
71856;SDS011;59712;46.980;28.882;2022-07-29T07:26:02;16.75;;;8.32;;
71856;SDS011;59712;46.980;28.882;2022-07-29T07:28:29;12.60;;;7.53;;
71856;SDS011;59712;46.980;28.882;2022-07-29T07:30:57;14.80;;;8.75;;
71856;SDS011;59712;46.980;28.882;2022-07-29T07:33:24;16.40;;;9.98;;
71856;SDS011;59712;46.980;28.882;2022-07-29T07:35:52;14.32;;;7.80;;
71856;SDS011;59712;46.980;28.882;2022-07-29T07:38:19;10.88;;;6.43;;
71856;SDS011;59712;46.980;28.882;2022-07-29T07:40:46;15.30;;;7.47;;
71856;SDS011;59712;46.980;28.882;2022-07-29T07:43:14;12.63;;;6.20;;
71856;SDS011;59712;46.980;28.882;2022-07-29T07:45:41;6.28;;;4.18;;
71856;SDS011;59712;46.980;28.882;2022-07-29T07:48:11;12.77;;;5.28;;
71856;SDS011;59712;46.980;28.882;2022-07-29T07:50:39;9.48;;;5.57;;
71856;SDS011;59712;46.980;28.882;2022-07-29T07:53:07;7.47;;;5.22;;
71856;SDS011;59712;46.980;28.882;2022-07-29T07:55:38;12.48;;;5.55;;
71856;SDS011;59712;46.980;28.882;2022-07-29T08:00:58;9.85;;;4.75;;
71856;SDS011;59712;46.980;28.882;2022-07-29T08:03:26;11.20;;;4.45;;
71856;SDS011;59712;46.980;28.882;2022-07-29T08:05:53;9.55;;;5.15;;
71856;SDS011;59712;46.980;28.882;2022-07-29T08:08:21;10.20;;;5.60;;
71856;SDS011;59712;46.980;28.882;2022-07-29T08:10:48;10.07;;;5.75;;
71856;SDS011;59712;46.980;28.882;2022-07-29T08:13:31;11.20;;;5.63;;
71856;SDS011;59712;46.980;28.882;2022-07-29T08:15:58;27.55;;;9.73;;
71856;SDS011;59712;46.980;28.882;2022-07-29T08:18:28;16.17;;;6.93;;
71856;SDS011;59712;46.980;28.882;2022-07-29T08:20:58;10.65;;;5.75;;
71856;SDS011;59712;46.980;28.882;2022-07-29T08:23:27;11.85;;;5.90;;
71856;SDS011;59712;46.980;28.882;2022-07-29T08:26:14;10.85;;;6.05;;
71856;SDS011;59712;46.980;28.882;2022-07-29T08:28:42;15.43;;;6.40;;
71856;SDS011;59712;46.980;28.882;2022-07-29T08:31:18;14.48;;;6.03;;
71856;SDS011;59712;46.980;28.882;2022-07-29T08:33:45;10.00;;;5.32;;
71856;SDS011;59712;46.980;28.882;2022-07-29T08:36:16;7.97;;;4.53;;
71856;SDS011;59712;46.980;28.882;2022-07-29T08:38:43;9.55;;;5.32;;
71856;SDS011;59712;46.980;28.882;2022-07-29T08:41:11;12.32;;;5.07;;
71856;SDS011;59712;46.980;28.882;2022-07-29T08:43:39;11.98;;;5.03;;
71856;SDS011;59712;46.980;28.882;2022-07-29T08:46:07;6.63;;;4.68;;
71856;SDS011;59712;46.980;28.882;2022-07-29T08:48:35;7.40;;;4.03;;
71856;SDS011;59712;46.980;28.882;2022-07-29T08:51:03;7.38;;;4.70;;
71856;SDS011;59712;46.980;28.882;2022-07-29T08:53:32;9.85;;;4.43;;
71856;SDS011;59712;46.980;28.882;2022-07-29T08:56:00;7.00;;;3.72;;
71856;SDS011;59712;46.980;28.882;2022-07-29T08:58:31;7.70;;;4.10;;
71856;SDS011;59712;46.980;28.882;2022-07-29T09:01:03;5.63;;;3.42;;
71856;SDS011;59712;46.980;28.882;2022-07-29T09:03:33;7.88;;;4.30;;
71856;SDS011;59712;46.980;28.882;2022-07-29T09:06:03;9.82;;;4.40;;
71856;SDS011;59712;46.980;28.882;2022-07-29T09:08:32;15.55;;;7.68;;
71856;SDS011;59712;46.980;28.882;2022-07-29T09:11:00;8.70;;;4.75;;
71856;SDS011;59712;46.980;28.882;2022-07-29T09:13:29;9.02;;;4.80;;
71856;SDS011;59712;46.980;28.882;2022-07-29T09:15:57;10.88;;;4.78;;
71856;SDS011;59712;46.980;28.882;2022-07-29T09:18:34;7.80;;;3.78;;
71856;SDS011;59712;46.980;28.882;2022-07-29T09:21:04;7.82;;;3.83;;
71856;SDS011;59712;46.980;28.882;2022-07-29T09:26:41;5.15;;;3.00;;
71856;SDS011;59712;46.980;28.882;2022-07-29T09:31:46;5.75;;;3.42;;
71856;SDS011;59712;46.980;28.882;2022-07-29T09:34:16;10.80;;;3.70;;
71856;SDS011;59712;46.980;28.882;2022-07-29T09:36:49;9.10;;;3.63;;
71856;SDS011;59712;46.980;28.882;2022-07-29T09:39:38;6.65;;;4.35;;
71856;SDS011;59712;46.980;28.882;2022-07-29T09:42:27;9.48;;;4.18;;
71856;SDS011;59712;46.980;28.882;2022-07-29T09:45:13;6.95;;;2.45;;
71856;SDS011;59712;46.980;28.882;2022-07-29T09:48:24;6.93;;;2.90;;
71856;SDS011;59712;46.980;28.882;2022-07-29T09:50:53;6.72;;;3.00;;
71856;SDS011;59712;46.980;28.882;2022-07-29T09:53:31;5.65;;;2.30;;
71856;SDS011;59712;46.980;28.882;2022-07-29T09:56:05;3.88;;;2.83;;
71856;SDS011;59712;46.980;28.882;2022-07-29T09:58:33;5.13;;;3.38;;
71856;SDS011;59712;46.980;28.882;2022-07-29T10:01:01;8.55;;;3.35;;
71856;SDS011;59712;46.980;28.882;2022-07-29T10:03:30;6.03;;;3.00;;
71856;SDS011;59712;46.980;28.882;2022-07-29T10:06:10;5.30;;;3.58;;
71856;SDS011;59712;46.980;28.882;2022-07-29T10:08:41;8.05;;;3.47;;
71856;SDS011;59712;46.980;28.882;2022-07-29T10:11:13;7.63;;;3.03;;
71856;SDS011;59712;46.980;28.882;2022-07-29T10:16:13;3.17;;;2.40;;
71856;SDS011;59712;46.980;28.882;2022-07-29T10:18:43;6.10;;;3.60;;
71856;SDS011;59712;46.980;28.882;2022-07-29T10:21:11;3.58;;;3.15;;
71856;SDS011;59712;46.980;28.882;2022-07-29T10:24:00;6.70;;;3.40;;
71856;SDS011;59712;46.980;28.882;2022-07-29T10:26:28;5.53;;;3.42;;
71856;SDS011;59712;46.980;28.882;2022-07-29T10:28:57;5.10;;;3.00;;
71856;SDS011;59712;46.980;28.882;2022-07-29T10:31:37;8.52;;;4.05;;
71856;SDS011;59712;46.980;28.882;2022-07-29T10:43:37;14.40;;;3.15;;
71856;SDS011;59712;46.980;28.882;2022-07-29T10:46:10;4.47;;;3.25;;
71856;SDS011;59712;46.980;28.882;2022-07-29T10:52:01;6.75;;;3.67;;
71856;SDS011;59712;46.980;28.882;2022-07-29T11:02:45;11.48;;;3.67;;
71856;SDS011;59712;46.980;28.882;2022-07-29T11:05:19;6.28;;;3.03;;
71856;SDS011;59712;46.980;28.882;2022-07-29T11:10:51;4.25;;;2.83;;
71856;SDS011;59712;46.980;28.882;2022-07-29T11:16:13;5.65;;;3.72;;
71856;SDS011;59712;46.980;28.882;2022-07-29T11:21:42;8.02;;;4.43;;
71856;SDS011;59712;46.980;28.882;2022-07-29T11:24:26;6.47;;;4.05;;
71856;SDS011;59712;46.980;28.882;2022-07-29T11:27:14;6.13;;;4.55;;
71856;SDS011;59712;46.980;28.882;2022-07-29T11:29:58;8.75;;;4.03;;
71856;SDS011;59712;46.980;28.882;2022-07-29T11:32:37;8.65;;;4.65;;
71856;SDS011;59712;46.980;28.882;2022-07-29T11:35:15;9.40;;;5.30;;
71856;SDS011;59712;46.980;28.882;2022-07-29T11:44:01;7.85;;;4.47;;
71856;SDS011;59712;46.980;28.882;2022-07-29T11:51:59;9.23;;;4.60;;
71856;SDS011;59712;46.980;28.882;2022-07-29T11:54:31;15.98;;;5.90;;
71856;SDS011;59712;46.980;28.882;2022-07-29T11:57:20;4.82;;;3.33;;
71856;SDS011;59712;46.980;28.882;2022-07-29T11:59:48;7.45;;;3.97;;
71856;SDS011;59712;46.980;28.882;2022-07-29T12:02:16;7.40;;;3.80;;
71856;SDS011;59712;46.980;28.882;2022-07-29T12:05:07;7.95;;;3.88;;
71856;SDS011;59712;46.980;28.882;2022-07-29T12:07:39;7.53;;;4.82;;
71856;SDS011;59712;46.980;28.882;2022-07-29T12:10:13;8.27;;;5.25;;
71856;SDS011;59712;46.980;28.882;2022-07-29T12:12:55;8.02;;;5.03;;
71856;SDS011;59712;46.980;28.882;2022-07-29T12:15:22;7.13;;;4.82;;
71856;SDS011;59712;46.980;28.882;2022-07-29T12:18:11;11.88;;;3.83;;
71856;SDS011;59712;46.980;28.882;2022-07-29T12:20:46;6.45;;;4.00;;
71856;SDS011;59712;46.980;28.882;2022-07-29T12:23:17;9.88;;;4.43;;
71856;SDS011;59712;46.980;28.882;2022-07-29T12:25:47;8.93;;;4.68;;
71856;SDS011;59712;46.980;28.882;2022-07-29T12:28:15;9.35;;;5.32;;
71856;SDS011;59712;46.980;28.882;2022-07-29T12:30:53;10.88;;;5.05;;
71856;SDS011;59712;46.980;28.882;2022-07-29T12:33:21;8.48;;;4.88;;
71856;SDS011;59712;46.980;28.882;2022-07-29T12:35:53;9.57;;;5.88;;
71856;SDS011;59712;46.980;28.882;2022-07-29T12:38:36;7.60;;;4.95;;
71856;SDS011;59712;46.980;28.882;2022-07-29T12:41:07;9.88;;;5.72;;
71856;SDS011;59712;46.980;28.882;2022-07-29T12:43:35;6.20;;;4.55;;
71856;SDS011;59712;46.980;28.882;2022-07-29T12:46:13;14.23;;;5.03;;
71856;SDS011;59712;46.980;28.882;2022-07-29T12:48:42;7.75;;;5.20;;
71856;SDS011;59712;46.980;28.882;2022-07-29T12:51:11;7.82;;;5.68;;
71856;SDS011;59712;46.980;28.882;2022-07-29T12:53:41;6.55;;;4.90;;
71856;SDS011;59712;46.980;28.882;2022-07-29T12:56:15;6.90;;;4.60;;
71856;SDS011;59712;46.980;28.882;2022-07-29T13:01:40;11.05;;;6.10;;
71856;SDS011;59712;46.980;28.882;2022-07-29T13:04:07;8.02;;;5.28;;
71856;SDS011;59712;46.980;28.882;2022-07-29T13:06:41;11.35;;;6.43;;
71856;SDS011;59712;46.980;28.882;2022-07-29T13:09:17;7.38;;;5.60;;
71856;SDS011;59712;46.980;28.882;2022-07-29T13:11:47;15.68;;;7.10;;
71856;SDS011;59712;46.980;28.882;2022-07-29T13:14:32;11.80;;;6.10;;
71856;SDS011;59712;46.980;28.882;2022-07-29T13:22:13;13.38;;;7.35;;
71856;SDS011;59712;46.980;28.882;2022-07-29T13:27:36;8.18;;;6.13;;
71856;SDS011;59712;46.980;28.882;2022-07-29T13:30:07;8.57;;;6.40;;
71856;SDS011;59712;46.980;28.882;2022-07-29T13:32:40;9.88;;;5.47;;
71856;SDS011;59712;46.980;28.882;2022-07-29T13:35:07;8.55;;;5.00;;
71856;SDS011;59712;46.980;28.882;2022-07-29T13:37:36;11.10;;;5.70;;
71856;SDS011;59712;46.980;28.882;2022-07-29T13:40:06;6.65;;;5.32;;
71856;SDS011;59712;46.980;28.882;2022-07-29T13:42:35;9.00;;;5.55;;
71856;SDS011;59712;46.980;28.882;2022-07-29T13:45:02;8.88;;;5.88;;
71856;SDS011;59712;46.980;28.882;2022-07-29T13:47:31;7.85;;;5.60;;
71856;SDS011;59712;46.980;28.882;2022-07-29T13:50:02;10.23;;;6.43;;
71856;SDS011;59712;46.980;28.882;2022-07-29T13:52:33;11.20;;;6.47;;
71856;SDS011;59712;46.980;28.882;2022-07-29T13:55:01;8.07;;;5.20;;
71856;SDS011;59712;46.980;28.882;2022-07-29T13:57:32;7.90;;;5.82;;
71856;SDS011;59712;46.980;28.882;2022-07-29T14:00:03;8.35;;;5.95;;
71856;SDS011;59712;46.980;28.882;2022-07-29T14:02:38;12.07;;;7.32;;
71856;SDS011;59712;46.980;28.882;2022-07-29T14:05:06;9.38;;;6.70;;
71856;SDS011;59712;46.980;28.882;2022-07-29T14:07:34;9.13;;;5.95;;
71856;SDS011;59712;46.980;28.882;2022-07-29T14:10:02;7.38;;;5.70;;
71856;SDS011;59712;46.980;28.882;2022-07-29T14:12:31;8.60;;;6.20;;
71856;SDS011;59712;46.980;28.882;2022-07-29T14:14:58;8.38;;;5.72;;
71856;SDS011;59712;46.980;28.882;2022-07-29T14:17:27;8.88;;;6.05;;
71856;SDS011;59712;46.980;28.882;2022-07-29T14:19:54;9.18;;;6.10;;
71856;SDS011;59712;46.980;28.882;2022-07-29T14:22:21;12.80;;;7.00;;
71856;SDS011;59712;46.980;28.882;2022-07-29T14:24:51;10.10;;;6.45;;
71856;SDS011;59712;46.980;28.882;2022-07-29T14:30:03;9.40;;;6.13;;
71856;SDS011;59712;46.980;28.882;2022-07-29T14:32:31;18.20;;;6.07;;
71856;SDS011;59712;46.980;28.882;2022-07-29T14:35:01;9.80;;;5.70;;
71856;SDS011;59712;46.980;28.882;2022-07-29T14:37:30;11.73;;;5.80;;
71856;SDS011;59712;46.980;28.882;2022-07-29T14:40:06;6.60;;;4.75;;
71856;SDS011;59712;46.980;28.882;2022-07-29T14:42:34;17.20;;;5.85;;
71856;SDS011;59712;46.980;28.882;2022-07-29T14:45:05;7.82;;;4.88;;
71856;SDS011;59712;46.980;28.882;2022-07-29T14:47:33;5.85;;;4.18;;
71856;SDS011;59712;46.980;28.882;2022-07-29T14:50:03;7.97;;;4.70;;
71856;SDS011;59712;46.980;28.882;2022-07-29T14:52:33;8.85;;;4.60;;
71856;SDS011;59712;46.980;28.882;2022-07-29T14:55:03;7.82;;;4.88;;
71856;SDS011;59712;46.980;28.882;2022-07-29T14:57:42;7.53;;;4.43;;
71856;SDS011;59712;46.980;28.882;2022-07-29T15:00:10;8.43;;;4.47;;
71856;SDS011;59712;46.980;28.882;2022-07-29T15:02:38;11.63;;;4.90;;
71856;SDS011;59712;46.980;28.882;2022-07-29T15:05:29;8.57;;;4.82;;
71856;SDS011;59712;46.980;28.882;2022-07-29T15:07:58;7.60;;;4.22;;
71856;SDS011;59712;46.980;28.882;2022-07-29T15:10:26;5.28;;;4.00;;
71856;SDS011;59712;46.980;28.882;2022-07-29T15:12:57;15.38;;;6.00;;
71856;SDS011;59712;46.980;28.882;2022-07-29T15:15:33;8.85;;;5.18;;
71856;SDS011;59712;46.980;28.882;2022-07-29T15:18:00;13.93;;;6.25;;
71856;SDS011;59712;46.980;28.882;2022-07-29T15:23:05;17.13;;;5.22;;
71856;SDS011;59712;46.980;28.882;2022-07-29T15:25:39;11.70;;;4.88;;
71856;SDS011;59712;46.980;28.882;2022-07-29T15:28:07;8.55;;;4.10;;
71856;SDS011;59712;46.980;28.882;2022-07-29T15:30:43;13.85;;;4.32;;
71856;SDS011;59712;46.980;28.882;2022-07-29T15:33:19;8.07;;;3.70;;
71856;SDS011;59712;46.980;28.882;2022-07-29T15:35:46;10.13;;;5.05;;
71856;SDS011;59712;46.980;28.882;2022-07-29T15:38:13;12.65;;;4.97;;
71856;SDS011;59712;46.980;28.882;2022-07-29T15:40:45;11.05;;;5.28;;
71856;SDS011;59712;46.980;28.882;2022-07-29T15:43:17;9.18;;;5.03;;
71856;SDS011;59712;46.980;28.882;2022-07-29T15:45:46;11.43;;;4.63;;
71856;SDS011;59712;46.980;28.882;2022-07-29T15:48:36;6.15;;;4.00;;
71856;SDS011;59712;46.980;28.882;2022-07-29T15:51:04;8.98;;;4.70;;
71856;SDS011;59712;46.980;28.882;2022-07-29T15:53:32;5.40;;;4.45;;
71856;SDS011;59712;46.980;28.882;2022-07-29T15:58:29;8.05;;;4.85;;
71856;SDS011;59712;46.980;28.882;2022-07-29T16:00:57;8.55;;;4.88;;
71856;SDS011;59712;46.980;28.882;2022-07-29T16:03:24;11.35;;;5.95;;
71856;SDS011;59712;46.980;28.882;2022-07-29T16:05:51;10.02;;;5.50;;
71856;SDS011;59712;46.980;28.882;2022-07-29T16:08:19;7.57;;;5.55;;
71856;SDS011;59712;46.980;28.882;2022-07-29T16:10:47;8.73;;;6.05;;
71856;SDS011;59712;46.980;28.882;2022-07-29T16:13:14;8.20;;;6.18;;
71856;SDS011;59712;46.980;28.882;2022-07-29T16:15:45;10.77;;;5.95;;
71856;SDS011;59712;46.980;28.882;2022-07-29T16:18:32;9.75;;;5.97;;
71856;SDS011;59712;46.980;28.882;2022-07-29T16:21:00;7.90;;;5.43;;
71856;SDS011;59712;46.980;28.882;2022-07-29T16:23:28;13.55;;;9.02;;
71856;SDS011;59712;46.980;28.882;2022-07-29T16:25:55;21.25;;;12.63;;
71856;SDS011;59712;46.980;28.882;2022-07-29T16:28:27;20.73;;;12.02;;
71856;SDS011;59712;46.980;28.882;2022-07-29T16:30:55;27.95;;;13.70;;